sensor_id;sensor_type;location;lat;lon;timestamp;pressure;altitude;pressure_sealevel;temperature;humidity
27864;BME280;15980;51.092;13.916;2022-08-20T00:01:26;98344.50;;;19.90;98.21
27864;BME280;15980;51.092;13.916;2022-08-20T00:06:29;98339.19;;;20.06;98.97
27864;BME280;15980;51.092;13.916;2022-08-20T00:11:34;98339.25;;;19.99;97.69
27864;BME280;15980;51.092;13.916;2022-08-20T00:16:38;98344.81;;;20.03;97.46
27864;BME280;15980;51.092;13.916;2022-08-20T00:21:41;98342.09;;;19.92;97.52
27864;BME280;15980;51.092;13.916;2022-08-20T00:26:44;98346.38;;;20.04;98.67
27864;BME280;15980;51.092;13.916;2022-08-20T00:31:48;98354.34;;;20.02;96.22
27864;BME280;15980;51.092;13.916;2022-08-20T00:36:51;98355.16;;;20.02;95.99
27864;BME280;15980;51.092;13.916;2022-08-20T00:41:54;98343.16;;;20.09;95.80
27864;BME280;15980;51.092;13.916;2022-08-20T00:46:59;98333.44;;;19.83;96.14
27864;BME280;15980;51.092;13.916;2022-08-20T00:52:07;98335.34;;;19.90;97.28
27864;BME280;15980;51.092;13.916;2022-08-20T00:57:16;98338.50;;;19.92;97.23
27864;BME280;15980;51.092;13.916;2022-08-20T01:02:26;98342.44;;;20.01;95.83
27864;BME280;15980;51.092;13.916;2022-08-20T01:07:30;98337.66;;;20.02;95.13
27864;BME280;15980;51.092;13.916;2022-08-20T01:12:37;98327.84;;;19.83;96.17
27864;BME280;15980;51.092;13.916;2022-08-20T01:17:44;98326.34;;;19.75;96.46
27864;BME280;15980;51.092;13.916;2022-08-20T01:22:54;98327.59;;;19.67;96.03
27864;BME280;15980;51.092;13.916;2022-08-20T01:28:29;98340.81;;;19.56;96.58
27864;BME280;15980;51.092;13.916;2022-08-20T01:33:33;98336.03;;;19.56;96.24
27864;BME280;15980;51.092;13.916;2022-08-20T01:38:40;98343.59;;;19.56;96.39
27864;BME280;15980;51.092;13.916;2022-08-20T01:43:46;98349.06;;;19.66;96.65
27864;BME280;15980;51.092;13.916;2022-08-20T01:48:52;98358.72;;;19.55;96.54
27864;BME280;15980;51.092;13.916;2022-08-20T01:53:57;98349.22;;;19.41;96.27
27864;BME280;15980;51.092;13.916;2022-08-20T01:59:04;98347.16;;;19.56;96.36
27864;BME280;15980;51.092;13.916;2022-08-20T02:04:09;98347.56;;;19.51;97.42
27864;BME280;15980;51.092;13.916;2022-08-20T02:09:13;98350.41;;;19.40;98.17
27864;BME280;15980;51.092;13.916;2022-08-20T02:14:18;98351.59;;;19.39;100.00
27864;BME280;15980;51.092;13.916;2022-08-20T02:19:25;98346.22;;;19.14;100.00
27864;BME280;15980;51.092;13.916;2022-08-20T02:24:29;98345.47;;;19.00;100.00
27864;BME280;15980;51.092;13.916;2022-08-20T02:29:34;98341.91;;;18.96;100.00
27864;BME280;15980;51.092;13.916;2022-08-20T02:34:37;98336.00;;;18.87;100.00
27864;BME280;15980;51.092;13.916;2022-08-20T02:39:40;98336.91;;;18.66;100.00
27864;BME280;15980;51.092;13.916;2022-08-20T02:44:44;98337.97;;;18.90;100.00
27864;BME280;15980;51.092;13.916;2022-08-20T02:49:47;98327.78;;;18.47;100.00
27864;BME280;15980;51.092;13.916;2022-08-20T02:54:50;98326.16;;;18.61;100.00
27864;BME280;15980;51.092;13.916;2022-08-20T02:59:55;98325.78;;;18.55;100.00
27864;BME280;15980;51.092;13.916;2022-08-20T03:04:58;98317.06;;;18.49;100.00
27864;BME280;15980;51.092;13.916;2022-08-20T03:10:01;98317.41;;;18.59;100.00
27864;BME280;15980;51.092;13.916;2022-08-20T03:15:07;98313.88;;;18.55;100.00
27864;BME280;15980;51.092;13.916;2022-08-20T03:20:12;98302.06;;;18.26;100.00
27864;BME280;15980;51.092;13.916;2022-08-20T03:25:15;98311.09;;;18.55;100.00
27864;BME280;15980;51.092;13.916;2022-08-20T03:30:20;98302.34;;;18.56;100.00
27864;BME280;15980;51.092;13.916;2022-08-20T03:35:25;98315.47;;;18.52;100.00
27864;BME280;15980;51.092;13.916;2022-08-20T03:40:31;98313.91;;;18.44;100.00
27864;BME280;15980;51.092;13.916;2022-08-20T03:45:37;98327.75;;;18.55;100.00
27864;BME280;15980;51.092;13.916;2022-08-20T03:50:41;98325.03;;;18.44;100.00
27864;BME280;15980;51.092;13.916;2022-08-20T03:55:47;98324.19;;;18.54;100.00
27864;BME280;15980;51.092;13.916;2022-08-20T04:00:51;98320.66;;;18.46;100.00
27864;BME280;15980;51.092;13.916;2022-08-20T04:05:54;98322.59;;;18.64;100.00
27864;BME280;15980;51.092;13.916;2022-08-20T04:10:58;98325.78;;;18.62;100.00
27864;BME280;15980;51.092;13.916;2022-08-20T04:16:03;98334.50;;;18.68;100.00
27864;BME280;15980;51.092;13.916;2022-08-20T04:21:09;98337.28;;;18.57;100.00
27864;BME280;15980;51.092;13.916;2022-08-20T04:26:12;98333.69;;;18.60;100.00
27864;BME280;15980;51.092;13.916;2022-08-20T04:31:16;98324.56;;;18.60;100.00
27864;BME280;15980;51.092;13.916;2022-08-20T04:36:21;98334.50;;;18.64;100.00
27864;BME280;15980;51.092;13.916;2022-08-20T04:41:24;98334.91;;;18.66;100.00
27864;BME280;15980;51.092;13.916;2022-08-20T04:46:28;98347.16;;;18.79;100.00
27864;BME280;15980;51.092;13.916;2022-08-20T04:51:33;98345.59;;;18.61;100.00
27864;BME280;15980;51.092;13.916;2022-08-20T04:56:36;98339.25;;;18.60;100.00
27864;BME280;15980;51.092;13.916;2022-08-20T05:01:41;98351.56;;;18.70;100.00
27864;BME280;15980;51.092;13.916;2022-08-20T05:06:44;98354.63;;;18.97;100.00
27864;BME280;15980;51.092;13.916;2022-08-20T05:11:47;98351.84;;;18.97;100.00
27864;BME280;15980;51.092;13.916;2022-08-20T05:16:51;98349.06;;;18.93;100.00
27864;BME280;15980;51.092;13.916;2022-08-20T05:21:57;98342.81;;;18.61;100.00
27864;BME280;15980;51.092;13.916;2022-08-20T05:27:00;98349.59;;;18.70;100.00
27864;BME280;15980;51.092;13.916;2022-08-20T05:32:05;98356.72;;;18.71;100.00
27864;BME280;15980;51.092;13.916;2022-08-20T05:37:08;98347.13;;;18.87;100.00
27864;BME280;15980;51.092;13.916;2022-08-20T05:42:11;98353.13;;;18.60;100.00
27864;BME280;15980;51.092;13.916;2022-08-20T05:47:16;98355.94;;;18.71;100.00
27864;BME280;15980;51.092;13.916;2022-08-20T05:52:19;98353.13;;;18.78;100.00
27864;BME280;15980;51.092;13.916;2022-08-20T05:57:22;98355.94;;;18.64;100.00
27864;BME280;15980;51.092;13.916;2022-08-20T06:02:26;98357.13;;;18.59;100.00
27864;BME280;15980;51.092;13.916;2022-08-20T06:07:47;98352.00;;;18.65;100.00
27864;BME280;15980;51.092;13.916;2022-08-20T06:12:51;98355.94;;;18.64;100.00
27864;BME280;15980;51.092;13.916;2022-08-20T06:17:55;98363.50;;;18.49;100.00
27864;BME280;15980;51.092;13.916;2022-08-20T06:22:59;98371.78;;;18.77;100.00
27864;BME280;15980;51.092;13.916;2022-08-20T06:28:02;98373.00;;;18.69;100.00
27864;BME280;15980;51.092;13.916;2022-08-20T06:33:07;98371.03;;;18.70;100.00
27864;BME280;15980;51.092;13.916;2022-08-20T06:38:10;98384.88;;;18.80;100.00
27864;BME280;15980;51.092;13.916;2022-08-20T06:43:15;98389.69;;;18.62;100.00
27864;BME280;15980;51.092;13.916;2022-08-20T06:48:19;98388.91;;;18.69;100.00
27864;BME280;15980;51.092;13.916;2022-08-20T06:53:22;98392.88;;;18.68;100.00
27864;BME280;15980;51.092;13.916;2022-08-20T06:58:26;98406.75;;;18.75;100.00
27864;BME280;15980;51.092;13.916;2022-08-20T07:03:31;98391.25;;;18.63;100.00
27864;BME280;15980;51.092;13.916;2022-08-20T07:08:34;98382.91;;;18.60;100.00
27864;BME280;15980;51.092;13.916;2022-08-20T07:13:37;98400.81;;;18.51;100.00
27864;BME280;15980;51.092;13.916;2022-08-20T07:18:43;98401.53;;;18.84;100.00
27864;BME280;15980;51.092;13.916;2022-08-20T07:23:46;98400.41;;;18.49;100.00
27864;BME280;15980;51.092;13.916;2022-08-20T07:28:49;98410.69;;;18.81;100.00
27864;BME280;15980;51.092;13.916;2022-08-20T07:33:54;98413.13;;;18.68;100.00
27864;BME280;15980;51.092;13.916;2022-08-20T07:38:57;98419.88;;;18.46;100.00
27864;BME280;15980;51.092;13.916;2022-08-20T07:44:00;98421.44;;;18.47;100.00
27864;BME280;15980;51.092;13.916;2022-08-20T07:49:04;98428.16;;;18.60;100.00
27864;BME280;15980;51.092;13.916;2022-08-20T07:54:10;98429.78;;;18.47;100.00
27864;BME280;15980;51.092;13.916;2022-08-20T07:59:13;98434.94;;;18.73;100.00
27864;BME280;15980;51.092;13.916;2022-08-20T08:04:17;98439.28;;;18.53;100.00
27864;BME280;15980;51.092;13.916;2022-08-20T08:09:20;98432.97;;;18.70;100.00
27864;BME280;15980;51.092;13.916;2022-08-20T08:14:26;98444.09;;;18.35;100.00
27864;BME280;15980;51.092;13.916;2022-08-20T08:19:34;98459.97;;;18.66;100.00
27864;BME280;15980;51.092;13.916;2022-08-20T08:24:40;98463.91;;;18.62;100.00
27864;BME280;15980;51.092;13.916;2022-08-20T08:29:43;98474.22;;;18.54;100.00
27864;BME280;15980;51.092;13.916;2022-08-20T08:34:48;98479.38;;;18.48;100.00
27864;BME280;15980;51.092;13.916;2022-08-20T08:39:51;98470.66;;;18.57;100.00
27864;BME280;15980;51.092;13.916;2022-08-20T08:44:54;98479.41;;;18.34;100.00
27864;BME280;15980;51.092;13.916;2022-08-20T08:50:03;98477.41;;;18.45;100.00
27864;BME280;15980;51.092;13.916;2022-08-20T08:55:10;98474.25;;;18.43;100.00
27864;BME280;15980;51.092;13.916;2022-08-20T09:00:18;98469.47;;;18.44;100.00
27864;BME280;15980;51.092;13.916;2022-08-20T09:05:26;98479.00;;;18.64;100.00
27864;BME280;15980;51.092;13.916;2022-08-20T09:10:33;98482.16;;;18.59;100.00
27864;BME280;15980;51.092;13.916;2022-08-20T09:15:36;98493.69;;;18.40;100.00
27864;BME280;15980;51.092;13.916;2022-08-20T09:20:40;98481.34;;;18.59;100.00
27864;BME280;15980;51.092;13.916;2022-08-20T09:25:43;98495.66;;;18.36;100.00
27864;BME280;15980;51.092;13.916;2022-08-20T09:30:46;98482.94;;;18.17;100.00
27864;BME280;15980;51.092;13.916;2022-08-20T09:35:50;98486.13;;;18.19;100.00
27864;BME280;15980;51.092;13.916;2022-08-20T09:40:53;98483.00;;;18.67;100.00
27864;BME280;15980;51.092;13.916;2022-08-20T09:45:56;98483.72;;;18.92;100.00
27864;BME280;15980;51.092;13.916;2022-08-20T09:51:01;98494.47;;;18.87;100.00
27864;BME280;15980;51.092;13.916;2022-08-20T09:56:04;98492.31;;;19.37;100.00
27864;BME280;15980;51.092;13.916;2022-08-20T10:01:11;98502.63;;;19.40;100.00
27864;BME280;15980;51.092;13.916;2022-08-20T10:06:17;98513.38;;;19.38;100.00
27864;BME280;15980;51.092;13.916;2022-08-20T10:11:21;98508.69;;;19.06;100.00
27864;BME280;15980;51.092;13.916;2022-08-20T10:16:24;98507.50;;;19.18;100.00
27864;BME280;15980;51.092;13.916;2022-08-20T10:21:29;98505.47;;;19.29;100.00
27864;BME280;15980;51.092;13.916;2022-08-20T10:26:33;98498.78;;;19.05;100.00
27864;BME280;15980;51.092;13.916;2022-08-20T10:31:36;98498.03;;;18.91;100.00
27864;BME280;15980;51.092;13.916;2022-08-20T10:36:42;98505.13;;;19.02;100.00
27864;BME280;15980;51.092;13.916;2022-08-20T10:41:45;98501.47;;;19.34;100.00
27864;BME280;15980;51.092;13.916;2022-08-20T10:46:48;98517.69;;;19.50;100.00
27864;BME280;15980;51.092;13.916;2022-08-20T10:51:52;98508.78;;;18.81;100.00
27864;BME280;15980;51.092;13.916;2022-08-20T10:57:00;98506.78;;;18.86;100.00
27864;BME280;15980;51.092;13.916;2022-08-20T11:02:03;98516.66;;;19.08;100.00
27864;BME280;15980;51.092;13.916;2022-08-20T11:07:26;98512.72;;;18.88;100.00
27864;BME280;15980;51.092;13.916;2022-08-20T11:12:29;98523.06;;;18.76;100.00
27864;BME280;15980;51.092;13.916;2022-08-20T11:17:34;98518.28;;;18.91;100.00
27864;BME280;15980;51.092;13.916;2022-08-20T11:22:39;98524.63;;;18.45;100.00
27864;BME280;15980;51.092;13.916;2022-08-20T11:27:44;98536.16;;;18.87;100.00
27864;BME280;15980;51.092;13.916;2022-08-20T11:32:48;98533.00;;;18.85;100.00
27864;BME280;15980;51.092;13.916;2022-08-20T11:37:54;98543.28;;;18.95;100.00
27864;BME280;15980;51.092;13.916;2022-08-20T11:42:57;98533.34;;;19.04;100.00
27864;BME280;15980;51.092;13.916;2022-08-20T11:48:17;98536.94;;;18.98;100.00
27864;BME280;15980;51.092;13.916;2022-08-20T11:53:21;98537.72;;;19.02;100.00
27864;BME280;15980;51.092;13.916;2022-08-20T11:58:24;98557.63;;;18.79;100.00
27864;BME280;15980;51.092;13.916;2022-08-20T12:03:27;98555.63;;;18.87;100.00
27864;BME280;15980;51.092;13.916;2022-08-20T12:08:32;98563.97;;;18.83;100.00
27864;BME280;15980;51.092;13.916;2022-08-20T12:13:36;98556.44;;;18.66;100.00
27864;BME280;15980;51.092;13.916;2022-08-20T12:18:39;98559.16;;;19.05;100.00
27864;BME280;15980;51.092;13.916;2022-08-20T12:23:43;98567.94;;;18.71;100.00
27864;BME280;15980;51.092;13.916;2022-08-20T12:28:45;98573.91;;;18.80;100.00
27864;BME280;15980;51.092;13.916;2022-08-20T12:33:48;98561.94;;;18.98;100.00
27864;BME280;15980;51.092;13.916;2022-08-20T12:38:52;98559.19;;;18.83;100.00
27864;BME280;15980;51.092;13.916;2022-08-20T12:43:55;98574.69;;;18.74;100.00
27864;BME280;15980;51.092;13.916;2022-08-20T12:48:58;98575.09;;;18.83;100.00
27864;BME280;15980;51.092;13.916;2022-08-20T12:54:02;98567.16;;;18.78;100.00
27864;BME280;15980;51.092;13.916;2022-08-20T12:59:05;98571.50;;;18.82;100.00
27864;BME280;15980;51.092;13.916;2022-08-20T13:04:08;98558.38;;;18.94;100.00
27864;BME280;15980;51.092;13.916;2022-08-20T13:09:15;98558.75;;;19.03;100.00
27864;BME280;15980;51.092;13.916;2022-08-20T13:14:18;98567.16;;;18.74;100.00
27864;BME280;15980;51.092;13.916;2022-08-20T13:19:21;98574.25;;;19.04;100.00
27864;BME280;15980;51.092;13.916;2022-08-20T13:24:25;98582.22;;;19.12;100.00
27864;BME280;15980;51.092;13.916;2022-08-20T13:29:28;98580.66;;;18.79;100.00
27864;BME280;15980;51.092;13.916;2022-08-20T13:34:31;98591.34;;;18.63;100.00
27864;BME280;15980;51.092;13.916;2022-08-20T13:39:37;98592.91;;;19.21;100.00
27864;BME280;15980;51.092;13.916;2022-08-20T13:44:40;98600.41;;;19.45;100.00
27864;BME280;15980;51.092;13.916;2022-08-20T13:49:43;98596.88;;;19.31;100.00
27864;BME280;15980;51.092;13.916;2022-08-20T13:54:48;98588.56;;;19.17;100.00
27864;BME280;15980;51.092;13.916;2022-08-20T13:59:53;98596.91;;;18.88;100.00
27864;BME280;15980;51.092;13.916;2022-08-20T14:04:56;98586.09;;;19.43;100.00
27864;BME280;15980;51.092;13.916;2022-08-20T14:10:04;98581.41;;;19.12;100.00
27864;BME280;15980;51.092;13.916;2022-08-20T14:15:09;98597.66;;;19.31;100.00
27864;BME280;15980;51.092;13.916;2022-08-20T14:20:15;98592.84;;;19.50;100.00
27864;BME280;15980;51.092;13.916;2022-08-20T14:25:22;98598.03;;;19.51;100.00
27864;BME280;15980;51.092;13.916;2022-08-20T14:30:29;98598.00;;;19.62;100.00
27864;BME280;15980;51.092;13.916;2022-08-20T14:35:32;98587.22;;;19.78;100.00
27864;BME280;15980;51.092;13.916;2022-08-20T14:40:36;98580.31;;;20.07;100.00
27864;BME280;15980;51.092;13.916;2022-08-20T14:45:39;98601.97;;;19.64;98.95
27864;BME280;15980;51.092;13.916;2022-08-20T14:50:42;98598.44;;;19.39;100.00
27864;BME280;15980;51.092;13.916;2022-08-20T14:55:47;98599.50;;;19.84;100.00
27864;BME280;15980;51.092;13.916;2022-08-20T15:00:50;98594.72;;;19.85;100.00
27864;BME280;15980;51.092;13.916;2022-08-20T15:05:53;98599.53;;;19.77;100.00
27864;BME280;15980;51.092;13.916;2022-08-20T15:10:57;98597.19;;;19.51;100.00
27864;BME280;15980;51.092;13.916;2022-08-20T15:16:01;98603.16;;;19.67;96.26
27864;BME280;15980;51.092;13.916;2022-08-20T15:21:04;98600.25;;;19.92;99.86
27864;BME280;15980;51.092;13.916;2022-08-20T15:26:08;98600.00;;;19.61;98.75
27864;BME280;15980;51.092;13.916;2022-08-20T15:31:12;98596.84;;;19.56;97.89
27864;BME280;15980;51.092;13.916;2022-08-20T15:36:14;98603.97;;;19.42;96.81
27864;BME280;15980;51.092;13.916;2022-08-20T15:41:19;98604.06;;;19.10;96.86
27864;BME280;15980;51.092;13.916;2022-08-20T15:46:22;98600.44;;;19.31;100.00
27864;BME280;15980;51.092;13.916;2022-08-20T15:51:31;98608.03;;;18.81;100.00
27864;BME280;15980;51.092;13.916;2022-08-20T15:56:55;98610.03;;;18.84;100.00
27864;BME280;15980;51.092;13.916;2022-08-20T16:02:08;98602.47;;;19.02;100.00
27864;BME280;15980;51.092;13.916;2022-08-20T16:07:19;98613.22;;;18.82;100.00
27864;BME280;15980;51.092;13.916;2022-08-20T16:12:30;98607.66;;;18.82;100.00
27864;BME280;15980;51.092;13.916;2022-08-20T16:17:39;98608.03;;;19.13;100.00
27864;BME280;15980;51.092;13.916;2022-08-20T16:22:44;98600.88;;;19.12;100.00
27864;BME280;15980;51.092;13.916;2022-08-20T16:27:53;98608.00;;;19.06;100.00
27864;BME280;15980;51.092;13.916;2022-08-20T16:33:05;98610.81;;;19.02;100.00
27864;BME280;15980;51.092;13.916;2022-08-20T16:38:16;98615.19;;;18.96;100.00
27864;BME280;15980;51.092;13.916;2022-08-20T16:48:47;98629.00;;;18.39;100.00
27864;BME280;15980;51.092;13.916;2022-08-20T16:53:53;98629.50;;;18.70;100.00
27864;BME280;15980;51.092;13.916;2022-08-20T16:59:01;98623.47;;;18.61;100.00
27864;BME280;15980;51.092;13.916;2022-08-20T17:04:04;98625.44;;;18.49;100.00
27864;BME280;15980;51.092;13.916;2022-08-20T17:09:11;98632.19;;;18.41;100.00
27864;BME280;15980;51.092;13.916;2022-08-20T17:14:17;98635.69;;;18.20;100.00
27864;BME280;15980;51.092;13.916;2022-08-20T17:19:25;98643.97;;;18.03;100.00
27864;BME280;15980;51.092;13.916;2022-08-20T17:24:30;98642.41;;;18.12;100.00
27864;BME280;15980;51.092;13.916;2022-08-20T17:29:47;98648.69;;;17.92;100.00
27864;BME280;15980;51.092;13.916;2022-08-20T17:34:52;98651.91;;;18.01;100.00
27864;BME280;15980;51.092;13.916;2022-08-20T17:40:05;98650.66;;;17.84;100.00
27864;BME280;15980;51.092;13.916;2022-08-20T17:45:12;98663.16;;;17.60;100.00
27864;BME280;15980;51.092;13.916;2022-08-20T17:50:18;98661.69;;;17.77;100.00
27864;BME280;15980;51.092;13.916;2022-08-20T17:55:21;98670.38;;;17.68;100.00
27864;BME280;15980;51.092;13.916;2022-08-20T18:00:26;98678.03;;;17.34;100.00
27864;BME280;15980;51.092;13.916;2022-08-20T18:05:33;98676.97;;;17.49;100.00
27864;BME280;15980;51.092;13.916;2022-08-20T18:30:14;98678.47;;;17.36;100.00
27864;BME280;15980;51.092;13.916;2022-08-20T18:35:20;98682.47;;;17.39;100.00
27864;BME280;15980;51.092;13.916;2022-08-20T18:40:27;98687.22;;;17.38;100.00
27864;BME280;15980;51.092;13.916;2022-08-20T18:45:34;98688.09;;;17.53;100.00
27864;BME280;15980;51.092;13.916;2022-08-20T18:50:43;98692.81;;;17.45;100.00
27864;BME280;15980;51.092;13.916;2022-08-20T18:56:00;98691.19;;;17.41;100.00
27864;BME280;15980;51.092;13.916;2022-08-20T19:01:10;98694.44;;;17.53;100.00
27864;BME280;15980;51.092;13.916;2022-08-20T19:06:32;98709.53;;;17.59;100.00
27864;BME280;15980;51.092;13.916;2022-08-20T19:12:05;98705.97;;;17.59;100.00
27864;BME280;15980;51.092;13.916;2022-08-20T19:17:16;98706.38;;;17.61;100.00
27864;BME280;15980;51.092;13.916;2022-08-20T19:22:20;98704.00;;;17.59;100.00
27864;BME280;15980;51.092;13.916;2022-08-20T19:27:23;98701.19;;;17.56;100.00
27864;BME280;15980;51.092;13.916;2022-08-20T19:32:30;98700.44;;;17.63;100.00
27864;BME280;15980;51.092;13.916;2022-08-20T19:37:36;98692.97;;;17.67;100.00
27864;BME280;15980;51.092;13.916;2022-08-20T19:42:41;98697.25;;;17.61;100.00
27864;BME280;15980;51.092;13.916;2022-08-20T19:47:52;98691.72;;;17.61;100.00
27864;BME280;15980;51.092;13.916;2022-08-20T19:53:01;98690.94;;;17.64;100.00
27864;BME280;15980;51.092;13.916;2022-08-20T19:58:13;98690.94;;;17.64;100.00
27864;BME280;15980;51.092;13.916;2022-08-20T20:03:20;98692.97;;;17.67;100.00
27864;BME280;15980;51.092;13.916;2022-08-20T20:08:26;98686.22;;;17.68;100.00
27864;BME280;15980;51.092;13.916;2022-08-20T20:13:30;98684.25;;;17.72;100.00
27864;BME280;15980;51.092;13.916;2022-08-20T20:18:38;98678.31;;;17.70;100.00
27864;BME280;15980;51.092;13.916;2022-08-20T20:23:51;98675.06;;;17.61;100.00
27864;BME280;15980;51.092;13.916;2022-08-20T20:29:00;98675.13;;;17.68;100.00
27864;BME280;15980;51.092;13.916;2022-08-20T20:34:08;98671.09;;;17.62;100.00
27864;BME280;15980;51.092;13.916;2022-08-20T20:39:25;98668.34;;;17.65;100.00
27864;BME280;15980;51.092;13.916;2022-08-20T20:44:32;98660.47;;;17.71;100.00
27864;BME280;15980;51.092;13.916;2022-08-20T20:49:48;98656.09;;;17.70;100.00
27864;BME280;15980;51.092;13.916;2022-08-20T20:55:04;98656.94;;;17.77;100.00
27864;BME280;15980;51.092;13.916;2022-08-20T21:00:10;98651.75;;;17.72;100.00
27864;BME280;15980;51.092;13.916;2022-08-20T21:05:18;98653.03;;;17.82;100.00
27864;BME280;15980;51.092;13.916;2022-08-20T21:10:23;98641.78;;;17.64;100.00
27864;BME280;15980;51.092;13.916;2022-08-20T21:15:26;98625.53;;;17.63;100.00
27864;BME280;15980;51.092;13.916;2022-08-20T21:20:31;98631.13;;;17.70;100.00
27864;BME280;15980;51.092;13.916;2022-08-20T21:25:34;98623.22;;;17.72;100.00
27864;BME280;15980;51.092;13.916;2022-08-20T21:30:37;98621.63;;;17.67;100.00
27864;BME280;15980;51.092;13.916;2022-08-20T21:35:42;98606.47;;;17.54;100.00
27864;BME280;15980;51.092;13.916;2022-08-20T21:40:45;98600.63;;;17.70;100.00
27864;BME280;15980;51.092;13.916;2022-08-20T21:45:48;98607.25;;;17.54;100.00
27864;BME280;15980;51.092;13.916;2022-08-20T21:50:52;98601.78;;;17.69;100.00
27864;BME280;15980;51.092;13.916;2022-08-20T21:55:55;98597.50;;;17.78;100.00
27864;BME280;15980;51.092;13.916;2022-08-20T22:01:00;98606.16;;;17.70;100.00
27864;BME280;15980;51.092;13.916;2022-08-20T22:06:07;98608.22;;;17.83;100.00
27864;BME280;15980;51.092;13.916;2022-08-20T22:11:12;98606.25;;;17.84;100.00
27864;BME280;15980;51.092;13.916;2022-08-20T22:16:18;98604.28;;;17.88;100.00
27864;BME280;15980;51.092;13.916;2022-08-20T22:21:27;98610.66;;;17.99;100.00
27864;BME280;15980;51.092;13.916;2022-08-20T22:26:31;98607.44;;;17.90;100.00
27864;BME280;15980;51.092;13.916;2022-08-20T22:31:37;98624.50;;;17.92;100.00
27864;BME280;15980;51.092;13.916;2022-08-20T22:36:42;98621.75;;;17.96;100.00
27864;BME280;15980;51.092;13.916;2022-08-20T22:41:45;98622.97;;;18.05;100.00
27864;BME280;15980;51.092;13.916;2022-08-20T22:46:48;98623.75;;;18.09;100.00
27864;BME280;15980;51.092;13.916;2022-08-20T22:51:55;98624.97;;;18.15;100.00
27864;BME280;15980;51.092;13.916;2022-08-20T22:56:58;98624.22;;;18.22;100.00
27864;BME280;15980;51.092;13.916;2022-08-20T23:02:03;98625.81;;;18.30;100.00
27864;BME280;15980;51.092;13.916;2022-08-20T23:07:11;98629.78;;;18.26;100.00
27864;BME280;15980;51.092;13.916;2022-08-20T23:12:16;98632.16;;;18.24;100.00
27864;BME280;15980;51.092;13.916;2022-08-20T23:17:19;98628.19;;;18.28;100.00
27864;BME280;15980;51.092;13.916;2022-08-20T23:22:23;98635.31;;;18.22;100.00
27864;BME280;15980;51.092;13.916;2022-08-20T23:27:26;98623.00;;;18.19;100.00
27864;BME280;15980;51.092;13.916;2022-08-20T23:32:29;98613.91;;;18.26;100.00
27864;BME280;15980;51.092;13.916;2022-08-20T23:37:36;98620.25;;;18.27;100.00
27864;BME280;15980;51.092;13.916;2022-08-20T23:42:39;98614.72;;;18.27;100.00
27864;BME280;15980;51.092;13.916;2022-08-20T23:47:43;98613.13;;;18.29;100.00
27864;BME280;15980;51.092;13.916;2022-08-20T23:52:47;98613.91;;;18.30;100.00
27864;BME280;15980;51.092;13.916;2022-08-20T23:57:50;98615.91;;;18.29;100.00
